Time;durP1;ratioP1;P1;durP2;ratioP2;P2;SDS_P1;SDS_P2;PMS_P1;PMS_P2;Temp;Humidity;BMP_temperature;BMP_pressure;BME280_temperature;BME280_humidity;BME280_pressure;Samples;Min_cycle;Max_cycle;Signal;HPM_P1;HPM_P2
2022/07/25 00:00:52;;;;;;;7.13;4.10;;;;;;;24.41;45.46;100420.75;4987652;28;20034;-67
2022/07/25 00:03:18;;;;;;;4.07;3.67;;;;;;;24.39;45.22;100423.72;4987495;28;20022;-67
2022/07/25 00:05:43;;;;;;;6.55;4.05;;;;;;;24.38;45.47;100416.53;4987718;28;20060;-68
2022/07/25 00:08:09;;;;;;;4.63;4.15;;;;;;;24.36;45.37;100420.56;4987933;28;20026;-67
2022/07/25 00:10:34;;;;;;;3.90;3.55;;;;;;;24.31;45.25;100418.47;4987436;28;20026;-67
2022/07/25 00:13:00;;;;;;;4.45;3.72;;;;;;;24.29;45.23;100420.63;4987509;28;20022;-70
2022/07/25 00:15:25;;;;;;;6.47;3.65;;;;;;;24.24;45.50;100417.69;4987930;28;20447;-69
2022/07/25 00:17:51;;;;;;;5.50;3.95;;;;;;;24.22;45.42;100418.97;4987688;28;20038;-69
2022/07/25 00:20:16;;;;;;;5.40;3.78;;;;;;;24.11;45.52;100411.44;4987624;28;20030;-70
2022/07/25 00:22:41;;;;;;;4.57;3.35;;;;;;;24.14;45.53;100411.84;4988053;28;20050;-69
2022/07/25 00:25:07;;;;;;;5.55;3.50;;;;;;;24.13;45.65;100421.13;4987970;28;20026;-69
2022/07/25 00:27:33;;;;;;;4.85;3.67;;;;;;;24.01;46.60;100411.06;4987619;28;20066;-69
2022/07/25 00:29:58;;;;;;;4.43;4.00;;;;;;;24.02;46.50;100410.84;4987309;28;20022;-69
2022/07/25 00:32:24;;;;;;;3.85;3.45;;;;;;;23.98;47.04;100416.97;4987726;28;20018;-70
2022/07/25 00:34:49;;;;;;;3.92;3.50;;;;;;;23.89;47.91;100416.38;4986038;28;20057;-69
2022/07/25 00:37:15;;;;;;;5.72;4.03;;;;;;;23.80;48.50;100417.66;4987873;28;20033;-70
2022/07/25 00:39:40;;;;;;;5.10;3.67;;;;;;;23.69;48.61;100412.88;4986243;28;20455;-69
2022/07/25 00:42:06;;;;;;;4.43;4.00;;;;;;;23.62;48.66;100414.81;4987186;28;20035;-69
2022/07/25 00:44:32;;;;;;;6.57;3.85;;;;;;;23.53;49.11;100413.38;4985625;28;20065;-70
2022/07/25 00:46:58;;;;;;;5.63;3.58;;;;;;;23.45;49.65;100415.50;4985912;28;20038;-69
2022/07/25 00:49:24;;;;;;;5.88;3.88;;;;;;;23.36;49.98;100425.00;4987671;28;20034;-69
2022/07/25 00:51:52;;;;;;;4.53;4.13;;;;;;;23.28;49.86;100411.56;4989426;28;20040;-70
2022/07/25 00:54:18;;;;;;;4.80;3.72;;;;;;;23.21;50.06;100413.44;4991087;28;20388;-70
2022/07/25 00:56:44;;;;;;;6.72;3.45;;;;;;;23.15;50.53;100420.56;4990950;28;20034;-69
2022/07/25 00:59:09;;;;;;;4.47;3.88;;;;;;;23.05;50.29;100414.69;4989321;28;20062;-69
2022/07/25 01:01:37;;;;;;;4.25;3.50;;;;;;;23.02;50.17;100414.31;4990851;28;20125;-69
2022/07/25 01:04:03;;;;;;;5.38;3.80;;;;;;;22.96;50.81;100415.97;4990817;28;20034;-70
2022/07/25 01:06:29;;;;;;;5.90;3.88;;;;;;;22.90;51.39;100414.09;4989038;28;20032;-70
2022/07/25 01:08:55;;;;;;;5.70;3.72;;;;;;;22.86;51.33;100420.22;4990581;28;20030;-70
2022/07/25 01:11:21;;;;;;;3.97;3.45;;;;;;;22.80;51.30;100415.56;4989336;28;20120;-70
2022/07/25 01:13:47;;;;;;;4.55;3.55;;;;;;;22.67;51.23;100407.38;4990576;28;20026;-69
2022/07/25 01:16:13;;;;;;;3.95;3.63;;;;;;;22.65;51.62;100415.78;4990870;28;20122;-69
2022/07/25 01:18:39;;;;;;;5.60;4.18;;;;;;;22.59;51.96;100410.31;4990062;28;20049;-70
2022/07/25 01:21:05;;;;;;;5.13;3.83;;;;;;;22.57;52.03;100418.72;4990592;28;20042;-69
2022/07/25 01:23:30;;;;;;;6.22;3.75;;;;;;;22.51;52.56;100414.13;4989365;28;20067;-69
2022/07/25 01:25:56;;;;;;;6.85;4.00;;;;;;;22.43;52.88;100417.00;4990373;28;20037;-70
2022/07/25 01:28:21;;;;;;;5.50;3.60;;;;;;;22.31;52.85;100405.84;4988891;28;20626;-70
2022/07/25 01:30:47;;;;;;;4.57;4.00;;;;;;;22.35;52.93;100417.22;4990111;28;20110;-69
2022/07/25 01:33:17;;;;;;;5.38;3.70;;;;;;;22.30;52.76;100414.25;4989930;28;20101;-69
2022/07/25 01:35:43;;;;;;;7.45;4.00;;;;;;;22.25;53.40;100423.06;4990217;28;20460;-69
2022/07/25 01:38:09;;;;;;;5.45;3.85;;;;;;;22.18;53.79;100419.47;4989799;28;20314;-68
2022/07/25 01:40:34;;;;;;;4.82;4.20;;;;;;;22.02;54.10;100399.88;4989554;28;20030;-68
2022/07/25 01:43:00;;;;;;;5.80;3.83;;;;;;;21.95;54.53;100402.63;4989269;28;20081;-69
2022/07/25 01:45:25;;;;;;;4.63;3.83;;;;;;;22.03;54.78;100417.97;4989273;28;20535;-70
2022/07/25 01:47:51;;;;;;;5.55;4.18;;;;;;;21.97;55.08;100413.34;4989557;28;20030;-68
2022/07/25 01:50:16;;;;;;;6.70;4.03;;;;;;;21.91;55.45;100415.00;4989913;28;20041;-69
2022/07/25 01:52:43;;;;;;;7.53;4.05;;;;;;;21.74;55.53;100401.91;4989299;28;20523;-68
2022/07/25 01:55:08;;;;;;;5.97;3.92;;;;;;;21.73;55.85;100411.97;4989268;28;20026;-69
2022/07/25 01:57:35;;;;;;;6.47;4.22;;;;;;;21.71;56.01;100418.66;4989390;28;20099;-69
2022/07/25 02:00:00;;;;;;;4.57;4.10;;;;;;;21.67;56.15;100422.88;4989001;28;20552;-69
2022/07/25 02:02:26;;;;;;;7.03;4.20;;;;;;;21.62;56.98;100417.16;4987799;28;20109;-70
2022/07/25 02:04:51;;;;;;;5.45;4.22;;;;;;;21.57;57.08;100422.41;4989228;28;20037;-68
2022/07/25 02:07:17;;;;;;;7.03;4.18;;;;;;;21.47;57.22;100403.66;4989423;28;20468;-70
2022/07/25 02:09:42;;;;;;;5.18;4.20;;;;;;;21.46;57.70;100412.03;4988760;28;20030;-68
2022/07/25 02:12:08;;;;;;;6.10;3.90;;;;;;;21.30;58.07;100393.25;4989043;28;20026;-69
2022/07/25 02:14:33;;;;;;;4.32;3.80;;;;;;;21.38;58.23;100414.94;4988880;28;20109;-70
2022/07/25 02:16:59;;;;;;;7.07;4.25;;;;;;;21.32;58.01;100422.06;4988827;28;20047;-69
2022/07/25 02:19:24;;;;;;;6.18;4.72;;;;;;;21.14;57.99;100402.63;4989227;28;20547;-70
2022/07/25 02:21:50;;;;;;;5.30;4.38;;;;;;;21.24;58.40;100424.06;4986628;28;20049;-69
2022/07/25 02:24:15;;;;;;;4.47;3.60;;;;;;;21.14;58.34;100415.41;4988879;28;20034;-69
2022/07/25 02:26:41;;;;;;;4.97;4.30;;;;;;;21.11;58.77;100418.53;4989440;28;20038;-70
2022/07/25 02:29:06;;;;;;;4.95;4.13;;;;;;;21.12;58.77;100422.97;4989194;28;20034;-70
2022/07/25 02:31:32;;;;;;;7.72;4.63;;;;;;;21.09;59.07;100426.91;4989228;28;20400;-70
2022/07/25 02:33:57;;;;;;;5.20;4.38;;;;;;;21.03;58.88;100419.56;4989080;28;20057;-70
2022/07/25 02:36:23;;;;;;;6.90;4.50;;;;;;;20.98;59.64;100404.81;4988895;28;20108;-70
2022/07/25 02:38:48;;;;;;;9.13;4.53;;;;;;;21.03;59.71;100413.25;4988777;28;20056;-69
2022/07/25 02:41:14;;;;;;;10.00;5.03;;;;;;;20.99;60.84;100420.16;4988813;28;20042;-70
2022/07/25 02:43:39;;;;;;;7.40;4.50;;;;;;;20.92;60.11;100411.06;4987039;28;20046;-69
2022/07/25 02:46:05;;;;;;;9.80;5.07;;;;;;;20.90;60.62;100415.84;4988893;28;20038;-69
2022/07/25 02:48:31;;;;;;;8.88;4.80;;;;;;;20.95;60.99;100429.75;4988892;28;20105;-69
2022/07/25 02:50:56;;;;;;;7.45;4.63;;;;;;;20.89;60.52;100425.09;4988689;28;20018;-70
2022/07/25 02:53:21;;;;;;;7.07;4.65;;;;;;;20.87;60.76;100425.28;4988368;28;20034;-69
2022/07/25 02:55:47;;;;;;;9.50;4.90;;;;;;;20.86;60.76;100423.56;4988947;28;20041;-70
2022/07/25 02:58:13;;;;;;;10.90;4.90;;;;;;;20.76;61.00;100422.25;4988753;28;20443;-69
2022/07/25 03:00:39;;;;;;;5.40;4.28;;;;;;;20.79;61.14;100430.03;4988535;28;20707;-69
2022/07/25 03:03:04;;;;;;;8.23;4.47;;;;;;;20.76;61.02;100427.72;4987805;28;20136;-69
2022/07/25 03:05:30;;;;;;;9.30;4.85;;;;;;;20.70;61.22;100423.03;4989094;28;20030;-69
2022/07/25 03:07:55;;;;;;;11.20;4.60;;;;;;;20.58;61.48;100411.84;4987211;28;20030;-69
2022/07/25 03:10:21;;;;;;;7.03;4.75;;;;;;;20.60;60.83;100417.91;4987285;28;20054;-70
2022/07/25 03:12:46;;;;;;;6.18;4.43;;;;;;;20.62;60.82;100425.88;4987706;28;20033;-69
2022/07/25 03:15:13;;;;;;;6.03;4.15;;;;;;;20.54;60.70;100423.31;4988404;28;20539;-69
2022/07/25 03:17:39;;;;;;;8.27;4.30;;;;;;;20.41;61.37;100399.50;4988478;28;20026;-69
2022/07/25 03:20:07;;;;;;;6.90;5.07;;;;;;;20.56;61.64;100430.25;4987039;28;20038;-70
2022/07/25 03:22:32;;;;;;;7.80;4.70;;;;;;;20.56;61.34;100429.41;4986652;28;20053;-70
2022/07/25 03:24:58;;;;;;;8.82;4.88;;;;;;;20.56;62.05;100429.41;4986823;28;20050;-70
2022/07/25 03:27:23;;;;;;;6.03;4.38;;;;;;;20.52;61.59;100433.56;4988179;28;20037;-69
2022/07/25 03:29:49;;;;;;;7.25;4.53;;;;;;;20.50;61.89;100432.94;4988241;28;20030;-69
2022/07/25 03:32:15;;;;;;;7.55;4.45;;;;;;;20.45;62.18;100425.34;4988053;28;20057;-70
2022/07/25 03:34:40;;;;;;;7.55;4.40;;;;;;;20.48;62.22;100438.56;4988381;28;20033;-70
2022/07/25 03:37:06;;;;;;;7.20;4.32;;;;;;;20.47;62.19;100438.78;4988090;28;20801;-71
2022/07/25 03:39:32;;;;;;;5.43;4.38;;;;;;;20.47;62.12;100436.88;4988054;28;20030;-70
2022/07/25 03:41:58;;;;;;;6.78;5.03;;;;;;;20.39;61.87;100425.25;4988212;28;20018;-70
2022/07/25 03:44:24;;;;;;;7.18;4.40;;;;;;;20.48;62.47;100444.03;4984567;28;20084;-70
2022/07/25 03:46:50;;;;;;;6.65;4.60;;;;;;;20.42;62.12;100435.78;4987648;28;20034;-70
2022/07/25 03:49:17;;;;;;;10.20;4.43;;;;;;;20.47;62.16;100446.94;4987945;28;20844;-70
2022/07/25 03:51:42;;;;;;;8.95;4.85;;;;;;;20.37;62.28;100439.06;4986499;28;20374;-70
2022/07/25 03:54:12;;;;;;;6.95;4.32;;;;;;;20.44;62.16;100439.16;4987211;28;20034;-69
2022/07/25 03:56:45;;;;;;;5.57;4.50;;;;;;;20.49;62.58;100453.88;4988098;28;20038;-69
2022/07/25 03:59:13;;;;;;;8.77;5.10;;;;;;;20.52;62.70;100449.91;4986690;28;20034;-69
2022/07/25 04:01:39;;;;;;;6.63;5.13;;;;;;;20.56;61.75;100443.03;4988117;28;20046;-68
2022/07/25 04:04:05;;;;;;;11.73;5.55;;;;;;;20.51;62.91;100437.34;4987976;28;20034;-68
2022/07/25 04:06:30;;;;;;;11.05;5.18;;;;;;;20.69;63.15;100454.03;4988095;28;20034;-70
2022/07/25 04:08:57;;;;;;;9.35;5.30;;;;;;;20.75;62.92;100461.44;4987925;28;20030;-70
2022/07/25 04:11:22;;;;;;;10.82;5.47;;;;;;;20.82;62.60;100451.44;4987972;28;20038;-69
2022/07/25 04:13:48;;;;;;;10.20;5.10;;;;;;;20.91;62.31;100450.25;4987446;28;20088;-69
2022/07/25 04:16:14;;;;;;;13.25;5.43;;;;;;;20.95;62.16;100441.50;4987469;28;20030;-70
2022/07/25 04:18:40;;;;;;;13.10;6.13;;;;;;;21.07;61.64;100458.19;4985684;28;20121;-70
2022/07/25 04:21:06;;;;;;;10.48;5.90;;;;;;;21.06;61.42;100440.13;4987495;28;20022;-70
2022/07/25 04:23:31;;;;;;;13.75;5.22;;;;;;;21.14;61.03;100442.69;4988008;28;20472;-71
2022/07/25 04:25:57;;;;;;;10.63;4.85;;;;;;;21.30;59.64;100456.03;4991204;28;20511;-72
2022/07/25 04:28:26;;;;;;;7.72;4.40;;;;;;;21.28;58.96;100433.56;4986870;28;20057;-70
2022/07/25 04:30:52;;;;;;;6.90;4.70;;;;;;;21.47;58.39;100454.69;4990914;28;20022;-69
2022/07/25 04:33:18;;;;;;;6.60;4.25;;;;;;;21.51;58.02;100434.94;4990709;28;20034;-69
2022/07/25 04:35:44;;;;;;;11.68;4.80;;;;;;;21.72;57.64;100456.69;4991415;28;20559;-68
2022/07/25 04:38:10;;;;;;;11.85;4.90;;;;;;;21.84;57.71;100457.00;4990722;28;20028;-68
2022/07/25 04:40:36;;;;;;;11.48;5.22;;;;;;;21.92;57.95;100449.47;4990872;28;20034;-69
2022/07/25 04:43:03;;;;;;;12.07;4.95;;;;;;;22.10;57.54;100462.56;4990492;28;20389;-69
2022/07/25 04:45:28;;;;;;;11.65;5.00;;;;;;;22.10;57.15;100444.28;4989309;28;20159;-69
2022/07/25 04:47:54;;;;;;;9.45;4.82;;;;;;;22.37;56.96;100455.28;4989531;28;20588;-70
2022/07/25 04:50:19;;;;;;;8.32;4.35;;;;;;;22.53;56.32;100452.19;4990885;28;20029;-69
2022/07/25 04:52:45;;;;;;;13.90;4.90;;;;;;;22.66;55.72;100458.47;4990792;28;20113;-69
2022/07/25 04:55:11;;;;;;;8.55;4.28;;;;;;;22.66;54.87;100436.59;4990636;28;20488;-69
2022/07/25 04:57:37;;;;;;;10.73;4.32;;;;;;;22.93;54.67;100453.88;4990276;28;20513;-69
2022/07/25 05:00:05;;;;;;;7.97;4.03;;;;;;;23.09;53.82;100453.44;4989453;28;20026;-70
2022/07/25 05:02:31;;;;;;;6.40;4.35;;;;;;;23.23;53.27;100453.25;4990059;28;20038;-70
2022/07/25 05:04:56;;;;;;;4.97;3.92;;;;;;;23.34;52.38;100452.59;4990424;28;20029;-70
2022/07/25 05:07:22;;;;;;;9.38;4.05;;;;;;;23.54;51.72;100450.63;4990708;28;20058;-70
2022/07/25 05:09:47;;;;;;;4.75;3.63;;;;;;;23.73;51.38;100449.72;4990347;28;20460;-68
2022/07/25 05:12:13;;;;;;;6.35;3.70;;;;;;;23.91;50.64;100466.31;4990494;28;20041;-69
2022/07/25 05:14:38;;;;;;;6.28;3.80;;;;;;;23.98;50.29;100445.25;4988674;28;20042;-69
2022/07/25 05:17:04;;;;;;;8.07;3.75;;;;;;;24.11;49.77;100447.91;4990163;28;20062;-70
2022/07/25 05:19:29;;;;;;;5.93;3.80;;;;;;;24.32;49.28;100453.03;4990480;28;20066;-70
2022/07/25 05:21:55;;;;;;;6.68;3.65;;;;;;;24.51;48.73;100456.75;4990396;28;20038;-70
2022/07/25 05:24:21;;;;;;;4.72;3.78;;;;;;;24.67;48.40;100456.25;4990349;28;20026;-68
2022/07/25 05:26:47;;;;;;;9.18;4.07;;;;;;;24.80;47.96;100453.41;4990432;28;20046;-69
2022/07/25 05:29:13;;;;;;;6.40;3.90;;;;;;;24.83;48.05;100428.25;4990087;28;20064;-68
2022/07/25 05:31:39;;;;;;;4.05;3.63;;;;;;;25.12;47.16;100448.69;4990498;28;20042;-69
2022/07/25 05:34:04;;;;;;;5.53;3.42;;;;;;;25.32;46.98;100454.84;4989252;28;20074;-67
2022/07/25 05:36:30;;;;;;;5.10;3.83;;;;;;;25.46;46.30;100446.25;4989672;28;20041;-67
2022/07/25 05:38:55;;;;;;;6.65;4.03;;;;;;;25.53;46.12;100429.66;4989094;28;20036;-69
2022/07/25 05:41:21;;;;;;;14.38;4.25;;;;;;;25.77;45.75;100434.28;4989724;28;20038;-68
2022/07/25 05:43:47;;;;;;;11.38;4.40;;;;;;;25.87;45.24;100448.31;4987982;28;20050;-69
2022/07/25 05:46:14;;;;;;;9.15;4.20;;;;;;;25.95;45.05;100440.56;4988881;28;20388;-67
2022/07/25 05:48:40;;;;;;;10.05;3.70;;;;;;;26.04;44.65;100435.63;4988225;28;20110;-68
2022/07/25 05:51:05;;;;;;;8.50;4.13;;;;;;;26.09;44.34;100422.84;4989474;28;20125;-68
2022/07/25 05:53:31;;;;;;;9.43;4.25;;;;;;;26.16;44.11;100439.28;4989944;28;20520;-69
2022/07/25 05:55:57;;;;;;;16.77;4.93;;;;;;;26.37;43.99;100449.75;4990202;28;20022;-69
2022/07/25 05:58:22;;;;;;;10.68;4.40;;;;;;;26.38;43.80;100443.19;4988272;28;20433;-68
2022/07/25 06:00:49;;;;;;;12.68;4.43;;;;;;;26.53;43.53;100446.34;4989608;28;20121;-68
2022/07/25 06:03:18;;;;;;;8.02;3.83;;;;;;;26.63;43.44;100446.63;4988273;28;20437;-69
2022/07/25 06:05:47;;;;;;;6.15;3.40;;;;;;;26.68;43.08;100430.25;4989760;28;20826;-67
2022/07/25 06:08:13;;;;;;;12.93;3.75;;;;;;;26.87;42.81;100451.13;4989766;28;20031;-68
2022/07/25 06:10:40;;;;;;;9.23;3.85;;;;;;;26.93;42.90;100444.69;4988197;28;20117;-69
2022/07/25 06:13:06;;;;;;;8.88;3.58;;;;;;;27.03;42.43;100431.16;4989492;28;20383;-68
2022/07/25 06:15:31;;;;;;;7.68;3.30;;;;;;;27.26;41.61;100446.88;4989639;28;20039;-68
2022/07/25 06:17:57;;;;;;;6.00;3.80;;;;;;;27.32;41.44;100438.50;4989728;28;20038;-68
2022/07/25 06:20:22;;;;;;;12.75;3.78;;;;;;;27.41;41.38;100436.22;4989287;28;20123;-67
2022/07/25 06:22:48;;;;;;;6.45;3.42;;;;;;;27.55;41.10;100432.13;4989372;28;20102;-68
2022/07/25 06:25:14;;;;;;;7.70;3.55;;;;;;;27.69;40.72;100434.38;4989346;28;20030;-67
2022/07/25 06:27:39;;;;;;;6.07;3.28;;;;;;;27.78;40.71;100424.63;4989296;28;20030;-68
2022/07/25 06:30:06;;;;;;;7.38;3.40;;;;;;;27.93;40.44;100436.03;4988968;28;20167;-68
2022/07/25 06:32:31;;;;;;;6.70;3.28;;;;;;;28.10;40.05;100439.69;4988805;28;20038;-68
2022/07/25 06:34:59;;;;;;;4.90;3.33;;;;;;;28.25;39.86;100434.44;4983026;28;20026;-68
2022/07/25 06:37:25;;;;;;;5.20;2.88;;;;;;;28.39;39.79;100429.47;4982936;28;20033;-67
2022/07/25 06:39:50;;;;;;;4.72;3.17;;;;;;;28.52;39.22;100443.00;4989073;28;20026;-68
2022/07/25 06:42:16;;;;;;;3.85;2.80;;;;;;;28.64;38.99;100437.41;4988633;28;20488;-67
2022/07/25 06:44:41;;;;;;;8.60;2.80;;;;;;;28.73;38.68;100433.16;4988868;28;20038;-67
2022/07/25 06:47:11;;;;;;;4.18;3.25;;;;;;;28.89;38.45;100432.31;4988812;28;20034;-68
2022/07/25 06:49:37;;;;;;;5.35;2.88;;;;;;;29.00;38.08;100423.09;4988230;28;20035;-68
2022/07/25 06:52:04;;;;;;;5.65;2.35;;;;;;;29.12;37.78;100418.38;4988911;28;20034;-68
2022/07/25 06:54:30;;;;;;;3.80;3.20;;;;;;;29.28;37.56;100418.34;4988379;28;20018;-67
2022/07/25 06:56:55;;;;;;;6.65;2.80;;;;;;;29.37;37.36;100421.50;4987297;28;20041;-67
2022/07/25 06:59:21;;;;;;;3.28;2.95;;;;;;;29.42;37.13;100414.13;4988280;28;20031;-67
2022/07/25 07:01:46;;;;;;;4.45;2.78;;;;;;;29.57;36.32;100413.50;4987273;28;20032;-69
2022/07/25 07:04:12;;;;;;;3.38;2.75;;;;;;;29.67;36.12;100420.03;4988347;28;20109;-68
2022/07/25 07:06:38;;;;;;;3.03;2.50;;;;;;;29.74;35.34;100406.84;4988143;28;20046;-67
2022/07/25 07:09:04;;;;;;;5.90;2.63;;;;;;;29.88;34.73;100404.50;4986631;28;20026;-68
2022/07/25 07:11:29;;;;;;;2.92;2.03;;;;;;;29.97;34.95;100405.75;4988308;28;20515;-68
2022/07/25 07:13:55;;;;;;;4.50;2.40;;;;;;;30.08;34.92;100407.53;4988272;28;20031;-68
2022/07/25 07:16:20;;;;;;;4.47;2.60;;;;;;;30.12;34.46;100406.75;4988136;28;20018;-69
2022/07/25 07:18:46;;;;;;;4.25;2.17;;;;;;;30.11;33.85;100410.63;4988166;28;20037;-69
2022/07/25 07:21:11;;;;;;;4.65;2.50;;;;;;;30.08;34.31;100408.34;4987660;28;20105;-68
2022/07/25 07:23:36;;;;;;;3.65;2.45;;;;;;;30.15;34.18;100411.75;4988161;28;20061;-71
2022/07/25 07:26:02;;;;;;;3.92;2.33;;;;;;;30.21;34.31;100401.63;4988405;28;20027;-70
2022/07/25 07:28:27;;;;;;;5.47;2.40;;;;;;;30.26;34.20;100405.28;4988073;28;20116;-71
2022/07/25 07:30:53;;;;;;;3.22;2.60;;;;;;;30.30;34.03;100416.66;4988370;28;20135;-70
2022/07/25 07:33:19;;;;;;;3.20;2.20;;;;;;;30.24;34.02;100403.88;4988293;28;20116;-70
2022/07/25 07:35:44;;;;;;;7.28;2.53;;;;;;;30.30;34.37;100402.81;4987795;28;20037;-70
2022/07/25 07:38:10;;;;;;;8.32;2.70;;;;;;;30.31;34.18;100412.81;4988344;28;20030;-70
2022/07/25 07:40:36;;;;;;;7.22;3.30;;;;;;;30.22;34.11;100400.53;4988115;28;20030;-68
2022/07/25 07:43:02;;;;;;;6.07;2.60;;;;;;;30.24;34.21;100407.47;4987585;28;20053;-69
2022/07/25 07:45:29;;;;;;;3.72;2.50;;;;;;;30.29;34.30;100413.06;4988067;28;20029;-69
2022/07/25 07:47:55;;;;;;;7.05;2.50;;;;;;;30.30;33.78;100408.34;4986482;28;20169;-69
2022/07/25 07:50:23;;;;;;;4.82;2.53;;;;;;;30.29;34.19;100403.91;4987141;28;20369;-69
2022/07/25 07:52:50;;;;;;;4.47;2.70;;;;;;;30.28;34.29;100394.78;4986730;28;20019;-69
2022/07/25 07:58:00;;;;;;;5.55;2.80;;;;;;;30.41;34.44;100407.38;4987717;28;20184;-69
2022/07/25 08:00:27;;;;;;;8.27;3.03;;;;;;;30.42;34.12;100397.97;4987437;28;20117;-69
2022/07/25 08:02:54;;;;;;;3.45;2.55;;;;;;;30.55;34.01;100403.06;4987282;28;20030;-69
2022/07/25 08:05:24;;;;;;;3.28;2.63;;;;;;;30.63;33.94;100402.59;4987543;28;20038;-69
2022/07/25 08:07:50;;;;;;;3.60;2.80;;;;;;;30.66;33.56;100387.38;4987187;28;20033;-68
2022/07/25 08:10:24;;;;;;;3.75;2.63;;;;;;;30.75;33.30;100397.75;4987604;28;20030;-69
2022/07/25 08:12:49;;;;;;;3.92;2.42;;;;;;;30.80;33.13;100396.94;4987481;28;20084;-68
2022/07/25 08:15:19;;;;;;;7.55;2.47;;;;;;;30.88;32.96;100394.53;4987536;28;20046;-68
2022/07/25 08:17:46;;;;;;;3.17;2.88;;;;;;;30.94;32.97;100399.00;4987301;28;20084;-68
2022/07/25 08:20:12;;;;;;;3.28;2.80;;;;;;;30.98;33.04;100393.78;4987302;28;20056;-68
2022/07/25 08:22:43;;;;;;;3.30;2.88;;;;;;;30.99;32.98;100393.50;4987248;28;20100;-68
2022/07/25 08:25:12;;;;;;;6.63;2.58;;;;;;;31.04;32.76;100399.06;4987480;28;20040;-69
2022/07/25 08:27:38;;;;;;;4.72;2.55;;;;;;;31.10;32.68;100399.94;4984941;28;20039;-69
2022/07/25 08:30:05;;;;;;;4.93;2.47;;;;;;;31.18;32.30;100391.16;4987498;28;20030;-68
2022/07/25 08:32:31;;;;;;;5.13;2.58;;;;;;;31.21;32.34;100385.88;4987395;28;20400;-68
2022/07/25 08:34:58;;;;;;;6.85;2.75;;;;;;;31.29;32.26;100392.91;4987285;28;20031;-68
2022/07/25 08:37:23;;;;;;;5.18;2.40;;;;;;;31.36;31.79;100391.56;4987333;28;20038;-69
2022/07/25 08:39:51;;;;;;;3.10;2.80;;;;;;;31.40;31.69;100401.00;4987104;28;20084;-68
2022/07/25 08:42:18;;;;;;;3.83;2.90;;;;;;;31.42;31.81;100397.97;4985740;28;20121;-69
2022/07/25 08:44:51;;;;;;;4.13;2.85;;;;;;;31.32;31.58;100379.34;4985814;28;20152;-69
2022/07/25 08:47:17;;;;;;;4.50;2.85;;;;;;;31.40;31.61;100391.88;4987446;28;20038;-69
2022/07/25 08:49:42;;;;;;;3.47;2.53;;;;;;;31.41;31.78;100385.22;4987073;28;20586;-69
2022/07/25 08:52:08;;;;;;;5.63;3.00;;;;;;;31.44;31.65;100374.44;4987024;28;20049;-69
2022/07/25 08:54:35;;;;;;;3.42;2.70;;;;;;;31.48;32.16;100380.25;4987944;28;20059;-68
2022/07/25 08:57:00;;;;;;;3.00;2.70;;;;;;;31.46;31.93;100374.16;4988932;28;20023;-69
2022/07/25 08:59:26;;;;;;;5.78;2.88;;;;;;;31.53;31.93;100375.56;4989414;28;20623;-70
2022/07/25 09:01:51;;;;;;;4.90;2.65;;;;;;;31.59;32.19;100376.44;4988941;28;20109;-69
2022/07/25 09:04:17;;;;;;;5.72;2.60;;;;;;;31.67;31.63;100378.69;4986180;28;20014;-69
2022/07/25 09:06:52;;;;;;;4.55;3.08;;;;;;;31.71;31.97;100380.66;4986405;28;20022;-69
2022/07/25 09:09:17;;;;;;;6.93;3.15;;;;;;;31.80;31.78;100372.63;4986642;28;20030;-69
2022/07/25 09:11:43;;;;;;;4.53;2.95;;;;;;;31.87;31.37;100364.91;4990347;28;20046;-69
2022/07/25 09:14:11;;;;;;;3.72;2.97;;;;;;;31.93;31.64;100378.56;4990716;28;20027;-69
2022/07/25 09:16:43;;;;;;;5.20;3.35;;;;;;;31.98;31.53;100367.44;4988550;28;20498;-68
2022/07/25 09:19:18;;;;;;;3.47;3.00;;;;;;;31.93;31.31;100356.34;4990273;28;20117;-69
2022/07/25 09:21:55;;;;;;;6.00;3.42;;;;;;;31.90;31.52;100350.50;4988896;28;20034;-68
2022/07/25 09:24:21;;;;;;;5.07;4.13;;;;;;;31.97;31.35;100354.69;4990636;28;20491;-69
2022/07/25 09:26:50;;;;;;;5.95;3.60;;;;;;;32.02;31.31;100363.00;4990160;28;20026;-67
2022/07/25 09:29:24;;;;;;;5.15;4.10;;;;;;;32.02;31.78;100364.97;4990122;28;20030;-68
2022/07/25 09:31:51;;;;;;;7.43;4.40;;;;;;;31.97;31.46;100351.91;4990214;28;20033;-68
2022/07/25 09:34:40;;;;;;;5.00;4.13;;;;;;;32.04;31.82;100365.50;4990327;28;20030;-69
2022/07/25 09:37:11;;;;;;;4.53;4.07;;;;;;;32.09;31.56;100355.28;4989154;28;20053;-67
2022/07/25 09:39:48;;;;;;;4.93;3.67;;;;;;;32.15;31.46;100353.34;4990295;28;20065;-68
2022/07/25 09:42:28;;;;;;;4.63;4.07;;;;;;;32.22;31.08;100354.75;4988483;28;20030;-68
2022/07/25 09:45:06;;;;;;;4.70;4.03;;;;;;;32.30;31.53;100343.09;4990024;28;20034;-67
2022/07/25 09:47:36;;;;;;;4.55;3.75;;;;;;;32.38;30.99;100342.59;4988453;28;20046;-68
2022/07/25 09:50:01;;;;;;;4.53;4.13;;;;;;;32.31;31.31;100322.53;4989818;28;20539;-69
2022/07/25 09:52:27;;;;;;;5.20;3.63;;;;;;;32.45;30.83;100328.41;4990014;28;20030;-69
2022/07/25 09:54:53;;;;;;;4.25;3.75;;;;;;;32.62;30.58;100340.06;4989752;28;20022;-70
2022/07/25 09:57:21;;;;;;;4.38;3.58;;;;;;;32.62;30.74;100342.03;4989507;28;20380;-70
2022/07/25 09:59:46;;;;;;;5.25;3.95;;;;;;;32.61;30.59;100335.63;4989884;28;20022;-69
2022/07/25 10:02:34;;;;;;;8.45;4.05;;;;;;;32.55;30.35;100340.38;4989673;28;20038;-69
2022/07/25 10:05:12;;;;;;;5.38;4.40;;;;;;;32.49;30.36;100338.69;4989670;28;20436;-71
2022/07/25 10:07:40;;;;;;;9.27;4.22;;;;;;;32.50;30.35;100334.78;4989682;28;20049;-68
2022/07/25 10:10:06;;;;;;;5.97;4.30;;;;;;;32.49;30.23;100327.59;4988030;28;20121;-69
2022/07/25 10:12:32;;;;;;;4.20;3.67;;;;;;;32.48;29.94;100328.72;4987809;28;20113;-69
2022/07/25 10:15:09;;;;;;;4.10;3.80;;;;;;;32.38;30.13;100298.16;4989324;28;20026;-70
2022/07/25 10:17:37;;;;;;;7.03;3.80;;;;;;;32.50;29.87;100320.09;4989425;28;20037;-70
2022/07/25 10:20:05;;;;;;;4.65;3.78;;;;;;;32.37;29.54;100299.25;4987935;28;20471;-69
2022/07/25 10:22:43;;;;;;;5.93;3.45;;;;;;;32.46;29.60;100313.41;4989025;28;20030;-69
2022/07/25 10:25:16;;;;;;;5.28;3.40;;;;;;;32.43;29.94;100297.28;4989603;28;20057;-68
2022/07/25 10:27:51;;;;;;;5.65;4.35;;;;;;;32.45;29.90;100293.16;4987198;28;20472;-68
2022/07/25 10:30:27;;;;;;;5.32;3.53;;;;;;;32.51;30.08;100299.53;4989364;28;20109;-69
2022/07/25 10:32:57;;;;;;;3.63;3.33;;;;;;;32.49;29.54;100294.25;4988861;28;20461;-70
2022/07/25 10:35:25;;;;;;;3.63;3.25;;;;;;;32.55;29.15;100293.16;4989244;28;20038;-69
2022/07/25 10:37:53;;;;;;;4.03;3.72;;;;;;;32.50;29.21;100282.03;4988916;28;20038;-69
2022/07/25 10:40:33;;;;;;;3.75;3.45;;;;;;;32.55;29.56;100286.75;4989219;28;20085;-69
2022/07/25 10:43:24;;;;;;;4.47;3.63;;;;;;;32.58;29.21;100275.91;4988488;28;20039;-68
2022/07/25 10:45:53;;;;;;;4.07;3.25;;;;;;;32.64;28.71;100279.53;4979795;28;20049;-69
2022/07/25 10:48:24;;;;;;;3.85;3.55;;;;;;;32.59;29.24;100272.03;4988980;28;20034;-69
2022/07/25 10:51:00;;;;;;;3.60;3.17;;;;;;;32.69;28.78;100278.69;4988959;28;20030;-69
2022/07/25 10:53:34;;;;;;;4.35;3.40;;;;;;;32.68;28.97;100260.34;4988708;28;20113;-68
2022/07/25 10:56:13;;;;;;;4.10;3.65;;;;;;;32.81;28.31;100265.34;4988744;28;20034;-69
2022/07/25 10:58:56;;;;;;;3.58;3.28;;;;;;;32.85;28.11;100258.13;4986943;28;20034;-69
2022/07/25 11:01:26;;;;;;;4.83;3.70;;;;;;;32.85;28.55;100253.38;4988607;28;20165;-69
2022/07/25 11:04:01;;;;;;;4.38;3.13;;;;;;;32.86;28.66;100257.00;4988339;28;20290;-69
2022/07/25 11:06:35;;;;;;;3.85;3.42;;;;;;;32.92;28.60;100247.53;4987500;28;20037;-68
2022/07/25 11:09:03;;;;;;;3.90;3.33;;;;;;;33.01;28.39;100249.44;4984502;28;20116;-68
2022/07/25 11:11:35;;;;;;;6.05;3.70;;;;;;;33.07;28.53;100244.72;4985291;28;20432;-69
2022/07/25 11:14:00;;;;;;;4.82;3.80;;;;;;;33.17;28.27;100236.34;4988239;28;20038;-69
2022/07/25 11:16:26;;;;;;;4.47;3.60;;;;;;;33.23;28.17;100246.28;4988594;28;20030;-69
2022/07/25 11:18:55;;;;;;;3.63;3.33;;;;;;;33.27;27.72;100230.72;4988116;28;20608;-69
2022/07/25 11:21:20;;;;;;;3.85;2.95;;;;;;;33.37;27.23;100225.16;4988306;28;20539;-69
2022/07/25 11:23:52;;;;;;;5.25;3.35;;;;;;;33.47;27.33;100230.66;4987742;28;20088;-69
2022/07/25 11:26:18;;;;;;;5.05;3.45;;;;;;;33.43;27.16;100210.09;4988372;28;20038;-68